createdAt,value
2018-12-14T00:04:48.398Z,1.60
2018-12-14T00:09:59.174Z,1.50
2018-12-14T00:15:08.619Z,1.50
2018-12-14T00:20:11.428Z,1.60
2018-12-14T00:25:20.262Z,1.50
2018-12-14T00:30:28.843Z,1.60
2018-12-14T00:35:37.860Z,1.60
2018-12-14T00:40:40.731Z,1.60
2018-12-14T00:45:49.390Z,1.60
2018-12-14T00:50:58.308Z,1.70
2018-12-14T00:56:07.035Z,1.70
2018-12-14T01:01:10.079Z,1.70
2018-12-14T01:06:18.850Z,1.60
2018-12-14T01:11:27.811Z,1.60
2018-12-14T01:16:36.525Z,1.60
2018-12-14T01:21:39.369Z,1.60
2018-12-14T01:26:48.270Z,1.50
2018-12-14T01:31:57.299Z,1.50
2018-12-14T01:37:06.004Z,1.50
2018-12-14T01:42:08.827Z,1.50
2018-12-14T01:47:13.443Z,1.50
2018-12-14T01:52:16.315Z,1.60
2018-12-14T01:57:19.702Z,1.60
2018-12-14T02:02:23.446Z,1.60
2018-12-14T02:07:26.380Z,1.50
2018-12-14T02:12:29.262Z,1.60
2018-12-14T02:17:32.271Z,1.60
2018-12-14T02:22:36.002Z,1.50
2018-12-14T02:27:39.822Z,1.50
2018-12-14T02:32:43.542Z,1.50
2018-12-14T02:37:52.559Z,1.40
2018-12-14T02:43:01.470Z,1.40
2018-12-14T02:48:10.299Z,1.40
2018-12-14T02:53:19.206Z,1.40
2018-12-14T02:58:21.991Z,1.40
2018-12-14T03:03:30.990Z,1.40
2018-12-14T03:08:39.851Z,1.30
2018-12-14T03:13:48.582Z,1.30
2018-12-14T03:18:51.636Z,1.30
2018-12-14T03:24:00.395Z,1.20
2018-12-14T03:29:08.969Z,1.20
2018-12-14T03:34:17.790Z,1.10
2018-12-14T03:39:20.687Z,1.10
2018-12-14T03:44:29.416Z,1.20
2018-12-14T03:49:38.087Z,1.20
2018-12-14T03:54:46.842Z,1.20
2018-12-14T03:59:49.733Z,1.20
2018-12-14T04:04:58.388Z,1.20
2018-12-14T04:10:07.473Z,1.20
2018-12-14T04:15:16.451Z,1.20
2018-12-14T04:20:19.300Z,1.20
2018-12-14T04:25:28.289Z,1.10
2018-12-14T04:30:37.097Z,1.10
2018-12-14T04:35:45.998Z,1.20
2018-12-14T04:40:50.723Z,1.20
2018-12-14T04:45:56.738Z,1.10
2018-12-14T04:51:01.641Z,1.10
2018-12-14T04:56:05.794Z,1.10
2018-12-14T05:01:09.639Z,1.10
2018-12-14T05:06:13.059Z,1.10
2018-12-14T05:11:19.660Z,1.20
2018-12-14T05:16:23.978Z,1.10
2018-12-14T05:21:27.753Z,1.10
2018-12-14T05:26:34.574Z,1.10
2018-12-14T05:31:38.103Z,1.20
2018-12-14T05:36:41.584Z,1.30
2018-12-14T05:41:45.080Z,1.30
2018-12-14T05:46:49.022Z,1.40
2018-12-14T05:51:57.900Z,1.40
2018-12-14T05:57:04.578Z,1.40
2018-12-14T06:02:08.115Z,1.40
2018-12-14T06:07:11.560Z,1.40
2018-12-14T06:12:20.946Z,1.40
2018-12-14T06:17:26.927Z,1.50
2018-12-14T06:22:32.905Z,1.50
2018-12-14T06:27:36.643Z,1.50
2018-12-14T06:32:39.546Z,1.50
2018-12-14T06:37:45.445Z,1.50
2018-12-14T06:42:48.352Z,1.40
2018-12-14T06:47:51.358Z,1.40
2018-12-14T06:53:00.600Z,1.30
2018-12-14T06:58:04.639Z,1.40
2018-12-14T07:03:07.583Z,1.40
2018-12-14T07:08:12.090Z,1.50
2018-12-14T07:13:15.010Z,1.50
2018-12-14T07:18:20.999Z,1.50
2018-12-14T07:23:27.082Z,1.40
2018-12-14T07:28:29.971Z,1.50
2018-12-14T07:33:32.957Z,1.60
2018-12-14T07:38:36.849Z,1.60
2018-12-14T07:43:39.887Z,1.60
2018-12-14T07:48:46.909Z,1.70
2018-12-14T07:53:50.794Z,1.70
2018-12-14T07:58:54.078Z,1.80
2018-12-14T08:04:00.054Z,1.80
2018-12-14T08:09:04.602Z,1.90
2018-12-14T08:14:11.542Z,1.90
2018-12-14T08:19:14.414Z,2.00
2018-12-14T08:24:20.286Z,2.00
2018-12-14T08:29:24.214Z,2.00
2018-12-14T08:34:28.166Z,2.10
2018-12-14T08:39:31.694Z,2.20
2018-12-14T08:44:34.529Z,2.30
2018-12-14T08:49:38.244Z,2.50
2018-12-14T08:54:41.161Z,2.70
2018-12-14T08:59:44.674Z,2.70
2018-12-14T09:04:48.230Z,2.90
2018-12-14T09:09:51.726Z,3.20
2018-12-14T09:14:57.690Z,3.30
2018-12-14T09:20:00.598Z,3.20
2018-12-14T09:25:04.423Z,3.20
2018-12-14T09:30:09.213Z,3.30
2018-12-14T09:35:12.692Z,3.30
2018-12-14T09:40:18.578Z,3.30
2018-12-14T09:45:22.264Z,3.50
2018-12-14T09:50:25.682Z,3.70
2018-12-14T09:55:28.576Z,3.60
2018-12-14T10:00:32.200Z,3.70
2018-12-14T10:05:35.714Z,4.00
2018-12-14T10:10:39.574Z,4.10
2018-12-14T10:15:42.555Z,4.20
2018-12-14T10:20:47.151Z,4.10
2018-12-14T10:25:50.070Z,4.10
2018-12-14T10:30:54.766Z,4.10
2018-12-14T10:35:57.716Z,4.30
2018-12-14T10:41:06.379Z,4.40
2018-12-14T10:46:15.022Z,4.50
2018-12-14T10:51:23.711Z,4.70
2018-12-14T10:56:26.654Z,4.50
2018-12-14T11:01:40.923Z,4.40
2018-12-14T11:06:49.658Z,4.60
2018-12-14T11:11:58.361Z,4.60
2018-12-14T11:17:01.186Z,4.80
2018-12-14T11:22:10.258Z,4.80
2018-12-14T11:27:19.140Z,5.00
2018-12-14T11:32:27.930Z,4.90
2018-12-14T11:56:20.075Z,4.60
2018-12-14T12:01:23.759Z,4.70
2018-12-14T12:06:33.226Z,4.80
2018-12-14T12:11:42.152Z,4.80
2018-12-14T12:16:51.777Z,4.70
2018-12-14T12:21:56.892Z,4.60
2018-12-14T12:27:05.902Z,4.40
2018-12-14T12:32:14.693Z,4.10
2018-12-14T12:37:23.612Z,4.10
2018-12-14T12:42:26.495Z,3.90
2018-12-14T12:47:29.559Z,3.70
2018-12-14T12:52:36.967Z,3.40
2018-12-14T12:57:42.441Z,3.50
2018-12-14T13:02:47.341Z,3.60
2018-12-14T13:07:56.343Z,3.70
2018-12-14T13:13:03.390Z,3.70
2018-12-14T13:18:09.047Z,3.90
2018-12-14T13:23:14.019Z,3.90
2018-12-14T13:28:25.742Z,3.80
2018-12-14T13:33:29.417Z,3.80
2018-12-14T13:38:35.582Z,3.90
2018-12-14T13:43:44.439Z,3.80
2018-12-14T13:48:53.491Z,3.70
2018-12-14T13:54:02.180Z,3.70
2018-12-14T13:59:11.852Z,3.60
2018-12-14T14:04:14.870Z,3.60
2018-12-14T14:09:24.045Z,3.70
2018-12-14T14:14:32.886Z,3.60
2018-12-14T14:19:41.778Z,3.50
2018-12-14T14:24:44.614Z,3.40
2018-12-14T14:29:53.530Z,3.30
2018-12-14T14:35:02.505Z,3.20
2018-12-14T14:40:11.406Z,3.10
2018-12-14T14:45:14.287Z,3.10
2018-12-14T14:50:23.011Z,3.00
2018-12-14T14:55:31.842Z,2.90
2018-12-14T15:00:40.720Z,2.90
2018-12-14T15:05:43.618Z,2.90
2018-12-14T15:10:52.659Z,2.70
2018-12-14T15:16:01.574Z,2.70
2018-12-14T15:21:10.303Z,2.60
2018-12-14T15:26:13.337Z,2.50
2018-12-14T15:31:22.135Z,2.50
2018-12-14T15:36:31.139Z,2.50
2018-12-14T15:41:39.978Z,2.40
2018-12-14T15:46:43.422Z,2.40
2018-12-14T15:51:46.834Z,2.30
2018-12-14T15:56:50.470Z,2.30
2018-12-14T16:01:53.966Z,2.30
2018-12-14T16:06:57.420Z,2.30
2018-12-14T16:12:00.344Z,2.20
2018-12-14T16:17:03.513Z,2.20
2018-12-14T16:22:07.427Z,2.20
2018-12-14T16:27:10.319Z,2.20
2018-12-14T16:32:14.005Z,2.20
2018-12-14T16:37:17.870Z,2.20
2018-12-14T16:42:20.743Z,2.20
2018-12-14T16:47:24.474Z,2.20
2018-12-14T16:52:27.946Z,2.20
2018-12-14T16:57:35.300Z,2.20
2018-12-14T17:02:43.299Z,2.20
2018-12-14T17:07:46.296Z,2.20
2018-12-14T17:12:52.328Z,2.10
2018-12-14T17:17:58.398Z,2.10
2018-12-14T17:23:02.404Z,2.10
2018-12-14T17:28:05.345Z,2.10
2018-12-14T17:33:08.518Z,2.10
2018-12-14T17:38:12.025Z,2.00
2018-12-14T17:43:17.515Z,2.00
2018-12-14T17:48:23.541Z,2.00
2018-12-14T17:53:27.644Z,1.90
2018-12-14T17:58:33.651Z,1.90
2018-12-14T18:03:42.515Z,1.90
2018-12-14T18:08:45.929Z,1.90
2018-12-14T18:13:49.495Z,1.90
2018-12-14T18:18:56.514Z,1.90
2018-12-14T18:24:02.779Z,1.90
2018-12-14T18:29:05.698Z,1.90
2018-12-14T18:34:08.603Z,1.90
2018-12-14T18:39:13.427Z,1.90
2018-12-14T18:44:16.939Z,1.90
2018-12-14T18:49:22.801Z,1.90
2018-12-14T18:54:25.951Z,1.90
2018-12-14T18:59:29.182Z,1.80
2018-12-14T19:04:32.390Z,1.90
2018-12-14T19:09:35.567Z,1.80
2018-12-14T19:14:40.710Z,1.80
2018-12-14T19:19:44.451Z,1.80
2018-12-14T19:24:48.983Z,1.80
2018-12-14T19:29:55.116Z,1.80
2018-12-14T19:34:59.512Z,1.70
2018-12-14T19:40:09.919Z,1.70
2018-12-14T19:45:18.566Z,1.70
2018-12-14T19:50:28.770Z,1.70
2018-12-14T19:55:37.679Z,1.70
2018-12-14T20:00:40.677Z,1.70
2018-12-14T20:05:49.724Z,1.70
2018-12-14T20:10:58.593Z,1.70
2018-12-14T20:16:12.769Z,1.70
2018-12-14T20:21:12.517Z,1.60
2018-12-14T20:26:21.513Z,1.60
2018-12-14T20:31:30.588Z,1.70
2018-12-14T20:36:39.625Z,1.70
2018-12-14T20:41:42.855Z,1.80
2018-12-14T20:46:47.586Z,1.80
2018-12-14T20:51:56.598Z,1.80
2018-12-14T20:57:00.718Z,1.80
2018-12-14T21:02:06.804Z,1.80
2018-12-14T21:07:13.589Z,1.80
2018-12-14T21:12:17.134Z,1.80
2018-12-14T21:17:20.176Z,1.80
2018-12-14T21:22:24.983Z,1.80
2018-12-14T21:27:28.611Z,1.80
2018-12-14T21:32:36.667Z,1.90
2018-12-14T21:37:40.710Z,1.90
2018-12-14T21:42:46.684Z,1.90
2018-12-14T21:47:55.795Z,1.90
2018-12-14T21:53:02.630Z,1.80
2018-12-14T21:58:06.523Z,1.80
2018-12-14T22:03:12.714Z,1.70
2018-12-14T22:08:15.670Z,1.80
2018-12-14T22:13:19.962Z,1.80
2018-12-14T22:18:29.334Z,1.70
2018-12-14T22:23:32.630Z,1.70
2018-12-14T22:28:36.835Z,1.70
2018-12-14T22:33:41.679Z,1.70
2018-12-14T22:38:48.707Z,1.70
2018-12-14T22:43:57.758Z,1.70
2018-12-14T22:49:06.774Z,1.70
2018-12-14T22:54:15.914Z,1.60
2018-12-14T22:59:19.651Z,1.60
2018-12-14T23:04:28.626Z,1.70
2018-12-14T23:09:37.479Z,1.60
2018-12-14T23:14:46.444Z,1.70
2018-12-14T23:19:49.300Z,1.60
2018-12-14T23:24:58.189Z,1.60
2018-12-14T23:30:08.383Z,1.60
2018-12-14T23:35:17.246Z,1.60
2018-12-14T23:40:20.138Z,1.60
2018-12-14T23:45:23.198Z,1.60
2018-12-14T23:50:27.426Z,1.60
2018-12-14T23:55:36.279Z,1.60
